sensor_id;sensor_type;location;lat;lon;timestamp;P1;durP1;ratioP1;P2;durP2;ratioP2
55461;SDS011;41327;45.102;20.624;2022-10-28T00:00:08;22.90;;;13.43;;
55461;SDS011;41327;45.102;20.624;2022-10-28T00:02:34;25.23;;;14.07;;
55461;SDS011;41327;45.102;20.624;2022-10-28T00:05:00;25.77;;;14.40;;
55461;SDS011;41327;45.102;20.624;2022-10-28T00:07:27;22.13;;;13.65;;
55461;SDS011;41327;45.102;20.624;2022-10-28T00:09:53;21.88;;;13.40;;
55461;SDS011;41327;45.102;20.624;2022-10-28T00:12:22;24.98;;;15.32;;
55461;SDS011;41327;45.102;20.624;2022-10-28T00:14:48;24.17;;;13.82;;
55461;SDS011;41327;45.102;20.624;2022-10-28T00:17:14;21.80;;;13.90;;
55461;SDS011;41327;45.102;20.624;2022-10-28T00:19:47;23.60;;;14.23;;
55461;SDS011;41327;45.102;20.624;2022-10-28T00:22:12;23.05;;;13.65;;
55461;SDS011;41327;45.102;20.624;2022-10-28T00:24:38;26.30;;;13.15;;
55461;SDS011;41327;45.102;20.624;2022-10-28T00:27:03;24.77;;;12.68;;
55461;SDS011;41327;45.102;20.624;2022-10-28T00:29:29;17.88;;;11.90;;
55461;SDS011;41327;45.102;20.624;2022-10-28T00:31:56;20.27;;;13.25;;
55461;SDS011;41327;45.102;20.624;2022-10-28T00:34:21;18.98;;;12.40;;
55461;SDS011;41327;45.102;20.624;2022-10-28T00:36:47;22.27;;;12.60;;
55461;SDS011;41327;45.102;20.624;2022-10-28T00:39:14;20.42;;;13.05;;
55461;SDS011;41327;45.102;20.624;2022-10-28T00:41:42;25.40;;;12.52;;
55461;SDS011;41327;45.102;20.624;2022-10-28T00:47:11;21.50;;;12.82;;
55461;SDS011;41327;45.102;20.624;2022-10-28T00:49:37;21.52;;;12.82;;
55461;SDS011;41327;45.102;20.624;2022-10-28T00:52:03;21.17;;;12.70;;
55461;SDS011;41327;45.102;20.624;2022-10-28T00:54:31;23.70;;;12.00;;
55461;SDS011;41327;45.102;20.624;2022-10-28T00:56:58;19.90;;;13.70;;
55461;SDS011;41327;45.102;20.624;2022-10-28T00:59:30;22.05;;;13.30;;
55461;SDS011;41327;45.102;20.624;2022-10-28T01:01:58;20.23;;;13.15;;
55461;SDS011;41327;45.102;20.624;2022-10-28T01:04:24;18.90;;;13.55;;
55461;SDS011;41327;45.102;20.624;2022-10-28T01:06:49;19.75;;;13.43;;
55461;SDS011;41327;45.102;20.624;2022-10-28T01:09:16;18.63;;;13.38;;
55461;SDS011;41327;45.102;20.624;2022-10-28T01:11:44;18.02;;;13.02;;
55461;SDS011;41327;45.102;20.624;2022-10-28T01:14:31;21.48;;;14.15;;
55461;SDS011;41327;45.102;20.624;2022-10-28T01:17:25;20.98;;;14.50;;
55461;SDS011;41327;45.102;20.624;2022-10-28T01:22:47;18.77;;;13.20;;
55461;SDS011;41327;45.102;20.624;2022-10-28T01:33:49;19.75;;;13.05;;
55461;SDS011;41327;45.102;20.624;2022-10-28T01:55:17;22.95;;;14.10;;
55461;SDS011;41327;45.102;20.624;2022-10-28T01:57:47;23.35;;;13.65;;
55461;SDS011;41327;45.102;20.624;2022-10-28T02:00:14;20.35;;;14.18;;
55461;SDS011;41327;45.102;20.624;2022-10-28T02:02:40;19.50;;;13.85;;
55461;SDS011;41327;45.102;20.624;2022-10-28T02:21:25;30.15;;;16.90;;
55461;SDS011;41327;45.102;20.624;2022-10-28T02:24:42;28.67;;;15.18;;
55461;SDS011;41327;45.102;20.624;2022-10-28T02:26:53;25.95;;;15.07;;
55461;SDS011;41327;45.102;20.624;2022-10-28T02:29:30;24.88;;;15.52;;
55461;SDS011;41327;45.102;20.624;2022-10-28T02:32:04;24.42;;;13.13;;
55461;SDS011;41327;45.102;20.624;2022-10-28T02:34:34;25.67;;;13.43;;
55461;SDS011;41327;45.102;20.624;2022-10-28T02:37:05;27.58;;;12.32;;
55461;SDS011;41327;45.102;20.624;2022-10-28T02:39:37;27.83;;;12.93;;
55461;SDS011;41327;45.102;20.624;2022-10-28T02:42:09;24.25;;;14.10;;
55461;SDS011;41327;45.102;20.624;2022-10-28T02:44:38;25.10;;;13.77;;
55461;SDS011;41327;45.102;20.624;2022-10-28T02:47:07;22.33;;;13.60;;
55461;SDS011;41327;45.102;20.624;2022-10-28T02:49:36;29.08;;;14.10;;
55461;SDS011;41327;45.102;20.624;2022-10-28T02:52:05;22.55;;;14.52;;
55461;SDS011;41327;45.102;20.624;2022-10-28T02:54:33;19.77;;;12.85;;
55461;SDS011;41327;45.102;20.624;2022-10-28T02:57:15;19.83;;;13.35;;
55461;SDS011;41327;45.102;20.624;2022-10-28T02:59:41;20.75;;;13.77;;
55461;SDS011;41327;45.102;20.624;2022-10-28T03:02:07;21.00;;;14.23;;
55461;SDS011;41327;45.102;20.624;2022-10-28T03:04:33;21.58;;;14.25;;
55461;SDS011;41327;45.102;20.624;2022-10-28T03:06:58;20.75;;;14.18;;
55461;SDS011;41327;45.102;20.624;2022-10-28T03:09:24;19.55;;;13.48;;
55461;SDS011;41327;45.102;20.624;2022-10-28T03:11:49;18.33;;;12.88;;
55461;SDS011;41327;45.102;20.624;2022-10-28T03:14:15;17.85;;;13.60;;
55461;SDS011;41327;45.102;20.624;2022-10-28T03:16:42;20.73;;;14.15;;
55461;SDS011;41327;45.102;20.624;2022-10-28T03:19:08;20.50;;;13.38;;
55461;SDS011;41327;45.102;20.624;2022-10-28T03:21:33;21.05;;;14.20;;
55461;SDS011;41327;45.102;20.624;2022-10-28T03:23:59;25.77;;;15.05;;
55461;SDS011;41327;45.102;20.624;2022-10-28T03:26:25;25.65;;;16.08;;
55461;SDS011;41327;45.102;20.624;2022-10-28T03:28:50;24.05;;;14.30;;
55461;SDS011;41327;45.102;20.624;2022-10-28T03:31:17;23.30;;;15.55;;
55461;SDS011;41327;45.102;20.624;2022-10-28T03:33:43;26.83;;;14.88;;
55461;SDS011;41327;45.102;20.624;2022-10-28T03:36:09;22.67;;;14.80;;
55461;SDS011;41327;45.102;20.624;2022-10-28T03:38:35;22.48;;;13.95;;
55461;SDS011;41327;45.102;20.624;2022-10-28T03:41:01;22.05;;;13.00;;
55461;SDS011;41327;45.102;20.624;2022-10-28T03:43:27;22.50;;;14.93;;
55461;SDS011;41327;45.102;20.624;2022-10-28T03:45:52;25.50;;;14.30;;
55461;SDS011;41327;45.102;20.624;2022-10-28T03:48:18;20.38;;;13.02;;
55461;SDS011;41327;45.102;20.624;2022-10-28T03:50:45;37.10;;;15.45;;
55461;SDS011;41327;45.102;20.624;2022-10-28T03:53:12;22.27;;;14.35;;
55461;SDS011;41327;45.102;20.624;2022-10-28T03:55:38;22.80;;;14.88;;
55461;SDS011;41327;45.102;20.624;2022-10-28T03:58:03;20.67;;;13.43;;
55461;SDS011;41327;45.102;20.624;2022-10-28T04:00:29;24.15;;;14.13;;
55461;SDS011;41327;45.102;20.624;2022-10-28T04:02:54;22.80;;;14.40;;
55461;SDS011;41327;45.102;20.624;2022-10-28T04:05:20;27.00;;;15.30;;
55461;SDS011;41327;45.102;20.624;2022-10-28T04:07:46;41.85;;;22.30;;
55461;SDS011;41327;45.102;20.624;2022-10-28T04:10:11;31.83;;;18.85;;
55461;SDS011;41327;45.102;20.624;2022-10-28T04:12:37;19.42;;;14.40;;
55461;SDS011;41327;45.102;20.624;2022-10-28T04:15:03;19.42;;;13.35;;
55461;SDS011;41327;45.102;20.624;2022-10-28T04:17:29;18.52;;;14.02;;
55461;SDS011;41327;45.102;20.624;2022-10-28T04:19:54;21.20;;;13.60;;
55461;SDS011;41327;45.102;20.624;2022-10-28T04:22:20;18.15;;;13.20;;
55461;SDS011;41327;45.102;20.624;2022-10-28T04:24:45;17.00;;;12.75;;
55461;SDS011;41327;45.102;20.624;2022-10-28T04:27:11;16.40;;;12.35;;
55461;SDS011;41327;45.102;20.624;2022-10-28T04:29:36;16.95;;;12.57;;
55461;SDS011;41327;45.102;20.624;2022-10-28T04:32:02;16.85;;;12.00;;
55461;SDS011;41327;45.102;20.624;2022-10-28T04:34:27;17.63;;;12.68;;
55461;SDS011;41327;45.102;20.624;2022-10-28T04:36:53;15.25;;;12.13;;
55461;SDS011;41327;45.102;20.624;2022-10-28T04:39:18;18.55;;;11.88;;
55461;SDS011;41327;45.102;20.624;2022-10-28T04:41:44;23.48;;;13.30;;
55461;SDS011;41327;45.102;20.624;2022-10-28T04:44:09;25.90;;;13.63;;
55461;SDS011;41327;45.102;20.624;2022-10-28T04:46:35;19.08;;;12.85;;
55461;SDS011;41327;45.102;20.624;2022-10-28T04:49:00;19.23;;;12.65;;
55461;SDS011;41327;45.102;20.624;2022-10-28T04:51:26;19.25;;;13.52;;
55461;SDS011;41327;45.102;20.624;2022-10-28T04:53:51;23.58;;;13.23;;
55461;SDS011;41327;45.102;20.624;2022-10-28T04:56:17;20.90;;;12.32;;
55461;SDS011;41327;45.102;20.624;2022-10-28T04:58:42;18.38;;;12.50;;
55461;SDS011;41327;45.102;20.624;2022-10-28T05:01:08;17.58;;;12.70;;
55461;SDS011;41327;45.102;20.624;2022-10-28T05:03:34;20.00;;;12.60;;
55461;SDS011;41327;45.102;20.624;2022-10-28T05:06:00;16.95;;;12.27;;
55461;SDS011;41327;45.102;20.624;2022-10-28T05:08:26;17.98;;;12.38;;
55461;SDS011;41327;45.102;20.624;2022-10-28T05:10:51;17.08;;;12.55;;
55461;SDS011;41327;45.102;20.624;2022-10-28T05:13:18;20.48;;;11.85;;
55461;SDS011;41327;45.102;20.624;2022-10-28T05:15:46;16.73;;;12.13;;
55461;SDS011;41327;45.102;20.624;2022-10-28T05:18:12;22.48;;;12.57;;
55461;SDS011;41327;45.102;20.624;2022-10-28T05:20:38;17.85;;;12.35;;
55461;SDS011;41327;45.102;20.624;2022-10-28T05:23:03;17.23;;;11.32;;
55461;SDS011;41327;45.102;20.624;2022-10-28T05:25:28;18.02;;;11.95;;
55461;SDS011;41327;45.102;20.624;2022-10-28T05:27:56;19.73;;;12.20;;
55461;SDS011;41327;45.102;20.624;2022-10-28T05:30:23;17.52;;;12.05;;
55461;SDS011;41327;45.102;20.624;2022-10-28T05:32:48;17.33;;;12.60;;
55461;SDS011;41327;45.102;20.624;2022-10-28T05:35:14;18.95;;;12.98;;
55461;SDS011;41327;45.102;20.624;2022-10-28T05:37:39;15.25;;;11.82;;
55461;SDS011;41327;45.102;20.624;2022-10-28T05:40:05;16.63;;;12.25;;
55461;SDS011;41327;45.102;20.624;2022-10-28T05:42:31;15.20;;;11.32;;
55461;SDS011;41327;45.102;20.624;2022-10-28T05:44:56;21.70;;;12.32;;
55461;SDS011;41327;45.102;20.624;2022-10-28T05:47:22;17.52;;;12.20;;
55461;SDS011;41327;45.102;20.624;2022-10-28T05:49:48;19.48;;;12.45;;
55461;SDS011;41327;45.102;20.624;2022-10-28T05:52:13;19.73;;;12.60;;
55461;SDS011;41327;45.102;20.624;2022-10-28T05:54:39;23.08;;;13.02;;
55461;SDS011;41327;45.102;20.624;2022-10-28T05:57:04;25.20;;;14.77;;
55461;SDS011;41327;45.102;20.624;2022-10-28T05:59:30;26.48;;;14.35;;
55461;SDS011;41327;45.102;20.624;2022-10-28T06:01:55;28.90;;;15.20;;
55461;SDS011;41327;45.102;20.624;2022-10-28T06:04:21;40.25;;;16.20;;
55461;SDS011;41327;45.102;20.624;2022-10-28T06:06:46;38.42;;;19.20;;
55461;SDS011;41327;45.102;20.624;2022-10-28T06:09:12;49.55;;;22.70;;
55461;SDS011;41327;45.102;20.624;2022-10-28T06:11:37;36.35;;;18.80;;
55461;SDS011;41327;45.102;20.624;2022-10-28T06:14:03;32.58;;;17.40;;
55461;SDS011;41327;45.102;20.624;2022-10-28T06:16:28;40.45;;;20.13;;
55461;SDS011;41327;45.102;20.624;2022-10-28T06:18:54;44.47;;;20.52;;
55461;SDS011;41327;45.102;20.624;2022-10-28T06:21:19;41.00;;;19.35;;
55461;SDS011;41327;45.102;20.624;2022-10-28T06:23:45;37.72;;;19.65;;
55461;SDS011;41327;45.102;20.624;2022-10-28T06:26:11;27.67;;;15.65;;
55461;SDS011;41327;45.102;20.624;2022-10-28T06:28:36;30.75;;;15.93;;
55461;SDS011;41327;45.102;20.624;2022-10-28T06:31:02;44.40;;;19.05;;
55461;SDS011;41327;45.102;20.624;2022-10-28T06:33:29;29.30;;;17.00;;
55461;SDS011;41327;45.102;20.624;2022-10-28T06:35:56;32.28;;;16.23;;
55461;SDS011;41327;45.102;20.624;2022-10-28T06:38:22;35.38;;;17.15;;
55461;SDS011;41327;45.102;20.624;2022-10-28T06:40:48;30.00;;;16.95;;
55461;SDS011;41327;45.102;20.624;2022-10-28T06:43:14;30.10;;;18.48;;
55461;SDS011;41327;45.102;20.624;2022-10-28T06:45:40;35.67;;;16.63;;
55461;SDS011;41327;45.102;20.624;2022-10-28T06:48:06;35.60;;;18.23;;
55461;SDS011;41327;45.102;20.624;2022-10-28T06:50:32;33.22;;;17.70;;
55461;SDS011;41327;45.102;20.624;2022-10-28T06:52:58;36.28;;;16.80;;
55461;SDS011;41327;45.102;20.624;2022-10-28T06:55:24;31.02;;;17.45;;
55461;SDS011;41327;45.102;20.624;2022-10-28T06:57:51;34.65;;;17.00;;
55461;SDS011;41327;45.102;20.624;2022-10-28T07:00:17;34.95;;;16.73;;
55461;SDS011;41327;45.102;20.624;2022-10-28T07:02:43;37.70;;;17.42;;
55461;SDS011;41327;45.102;20.624;2022-10-28T07:05:08;43.45;;;18.05;;
55461;SDS011;41327;45.102;20.624;2022-10-28T07:07:34;37.83;;;18.10;;
55461;SDS011;41327;45.102;20.624;2022-10-28T07:10:06;47.90;;;21.40;;
55461;SDS011;41327;45.102;20.624;2022-10-28T07:12:32;42.67;;;21.05;;
55461;SDS011;41327;45.102;20.624;2022-10-28T07:14:57;39.22;;;17.45;;
55461;SDS011;41327;45.102;20.624;2022-10-28T07:17:23;37.83;;;18.02;;
55461;SDS011;41327;45.102;20.624;2022-10-28T07:19:48;33.88;;;17.13;;
55461;SDS011;41327;45.102;20.624;2022-10-28T07:22:14;31.50;;;17.13;;
55461;SDS011;41327;45.102;20.624;2022-10-28T07:24:40;33.17;;;17.67;;
55461;SDS011;41327;45.102;20.624;2022-10-28T07:27:06;28.63;;;15.48;;
55461;SDS011;41327;45.102;20.624;2022-10-28T07:29:33;34.90;;;16.73;;
55461;SDS011;41327;45.102;20.624;2022-10-28T07:31:59;32.83;;;18.15;;
55461;SDS011;41327;45.102;20.624;2022-10-28T07:34:24;30.90;;;17.85;;
55461;SDS011;41327;45.102;20.624;2022-10-28T07:36:50;29.85;;;17.08;;
55461;SDS011;41327;45.102;20.624;2022-10-28T07:39:16;29.13;;;16.45;;
55461;SDS011;41327;45.102;20.624;2022-10-28T07:41:42;29.98;;;17.13;;
55461;SDS011;41327;45.102;20.624;2022-10-28T07:44:08;31.02;;;18.13;;
55461;SDS011;41327;45.102;20.624;2022-10-28T07:46:33;35.33;;;20.00;;
55461;SDS011;41327;45.102;20.624;2022-10-28T07:48:59;55.08;;;26.63;;
55461;SDS011;41327;45.102;20.624;2022-10-28T07:51:24;45.78;;;24.20;;
55461;SDS011;41327;45.102;20.624;2022-10-28T07:53:50;36.70;;;20.65;;
55461;SDS011;41327;45.102;20.624;2022-10-28T07:56:15;37.53;;;20.05;;
55461;SDS011;41327;45.102;20.624;2022-10-28T07:58:41;41.15;;;20.15;;
55461;SDS011;41327;45.102;20.624;2022-10-28T08:01:08;31.33;;;19.35;;
55461;SDS011;41327;45.102;20.624;2022-10-28T08:03:35;31.73;;;17.23;;
55461;SDS011;41327;45.102;20.624;2022-10-28T08:06:08;32.42;;;20.80;;
55461;SDS011;41327;45.102;20.624;2022-10-28T08:08:37;30.67;;;19.23;;
55461;SDS011;41327;45.102;20.624;2022-10-28T08:11:14;33.25;;;18.10;;
55461;SDS011;41327;45.102;20.624;2022-10-28T08:13:41;37.72;;;20.02;;
55461;SDS011;41327;45.102;20.624;2022-10-28T08:16:07;35.42;;;20.05;;
55461;SDS011;41327;45.102;20.624;2022-10-28T08:18:33;43.45;;;23.17;;
55461;SDS011;41327;45.102;20.624;2022-10-28T08:20:59;38.42;;;21.95;;
55461;SDS011;41327;45.102;20.624;2022-10-28T08:23:26;48.72;;;25.10;;
55461;SDS011;41327;45.102;20.624;2022-10-28T08:25:52;44.38;;;24.83;;
55461;SDS011;41327;45.102;20.624;2022-10-28T08:28:17;44.78;;;24.00;;
55461;SDS011;41327;45.102;20.624;2022-10-28T08:30:44;39.67;;;23.30;;
55461;SDS011;41327;45.102;20.624;2022-10-28T08:33:10;43.08;;;24.13;;
55461;SDS011;41327;45.102;20.624;2022-10-28T08:35:36;52.03;;;26.52;;
55461;SDS011;41327;45.102;20.624;2022-10-28T08:38:02;41.65;;;22.80;;
55461;SDS011;41327;45.102;20.624;2022-10-28T08:41:11;38.45;;;22.73;;
55461;SDS011;41327;45.102;20.624;2022-10-28T08:43:26;33.20;;;19.85;;
55461;SDS011;41327;45.102;20.624;2022-10-28T08:49:02;36.67;;;21.85;;
55461;SDS011;41327;45.102;20.624;2022-10-28T08:54:10;33.53;;;23.30;;
55461;SDS011;41327;45.102;20.624;2022-10-28T08:56:40;33.97;;;22.98;;
55461;SDS011;41327;45.102;20.624;2022-10-28T08:59:13;38.22;;;22.35;;
55461;SDS011;41327;45.102;20.624;2022-10-28T09:01:48;32.70;;;21.10;;
55461;SDS011;41327;45.102;20.624;2022-10-28T09:04:40;34.72;;;22.35;;
55461;SDS011;41327;45.102;20.624;2022-10-28T09:07:14;32.78;;;21.02;;
55461;SDS011;41327;45.102;20.624;2022-10-28T09:09:42;34.28;;;21.88;;
55461;SDS011;41327;45.102;20.624;2022-10-28T09:17:52;37.75;;;22.38;;
55461;SDS011;41327;45.102;20.624;2022-10-28T09:20:31;32.92;;;20.98;;
55461;SDS011;41327;45.102;20.624;2022-10-28T09:23:20;36.03;;;22.55;;
55461;SDS011;41327;45.102;20.624;2022-10-28T09:25:57;32.72;;;22.35;;
55461;SDS011;41327;45.102;20.624;2022-10-28T09:28:40;32.00;;;21.77;;
55461;SDS011;41327;45.102;20.624;2022-10-28T09:37:11;31.65;;;21.00;;
55461;SDS011;41327;45.102;20.624;2022-10-28T09:39:43;36.38;;;22.80;;
55461;SDS011;41327;45.102;20.624;2022-10-28T09:42:21;30.67;;;21.45;;
55461;SDS011;41327;45.102;20.624;2022-10-28T09:45:32;35.88;;;21.20;;
55461;SDS011;41327;45.102;20.624;2022-10-28T09:47:42;35.00;;;22.58;;
55461;SDS011;41327;45.102;20.624;2022-10-28T09:50:16;32.55;;;20.50;;
55461;SDS011;41327;45.102;20.624;2022-10-28T09:52:53;33.20;;;21.85;;
55461;SDS011;41327;45.102;20.624;2022-10-28T09:55:22;31.30;;;21.00;;
55461;SDS011;41327;45.102;20.624;2022-10-28T09:57:47;33.13;;;21.98;;
55461;SDS011;41327;45.102;20.624;2022-10-28T10:00:13;32.72;;;22.38;;
55461;SDS011;41327;45.102;20.624;2022-10-28T10:02:39;34.95;;;22.35;;
55461;SDS011;41327;45.102;20.624;2022-10-28T10:05:16;30.77;;;20.80;;
55461;SDS011;41327;45.102;20.624;2022-10-28T10:10:13;29.80;;;20.35;;
55461;SDS011;41327;45.102;20.624;2022-10-28T10:12:40;31.58;;;21.67;;
55461;SDS011;41327;45.102;20.624;2022-10-28T10:15:06;28.63;;;19.65;;
55461;SDS011;41327;45.102;20.624;2022-10-28T10:17:39;32.75;;;20.05;;
55461;SDS011;41327;45.102;20.624;2022-10-28T10:20:10;28.98;;;19.75;;
55461;SDS011;41327;45.102;20.624;2022-10-28T10:22:45;29.83;;;20.00;;
55461;SDS011;41327;45.102;20.624;2022-10-28T10:27:54;29.27;;;19.80;;
55461;SDS011;41327;45.102;20.624;2022-10-28T10:30:25;28.58;;;19.52;;
55461;SDS011;41327;45.102;20.624;2022-10-28T10:32:54;27.05;;;18.73;;
55461;SDS011;41327;45.102;20.624;2022-10-28T10:35:33;28.55;;;18.20;;
55461;SDS011;41327;45.102;20.624;2022-10-28T10:38:00;22.95;;;16.92;;
55461;SDS011;41327;45.102;20.624;2022-10-28T10:40:28;25.52;;;18.42;;
55461;SDS011;41327;45.102;20.624;2022-10-28T10:46:01;27.00;;;18.35;;
55461;SDS011;41327;45.102;20.624;2022-10-28T10:48:31;23.80;;;17.27;;
55461;SDS011;41327;45.102;20.624;2022-10-28T10:51:03;22.75;;;16.88;;
55461;SDS011;41327;45.102;20.624;2022-10-28T10:53:34;25.77;;;16.88;;
55461;SDS011;41327;45.102;20.624;2022-10-28T10:56:01;27.95;;;16.55;;
55461;SDS011;41327;45.102;20.624;2022-10-28T10:58:36;25.67;;;17.35;;
55461;SDS011;41327;45.102;20.624;2022-10-28T11:06:03;26.70;;;18.40;;
55461;SDS011;41327;45.102;20.624;2022-10-28T11:08:37;27.10;;;17.98;;
55461;SDS011;41327;45.102;20.624;2022-10-28T11:11:09;24.63;;;16.60;;
55461;SDS011;41327;45.102;20.624;2022-10-28T11:14:42;27.07;;;17.27;;
55461;SDS011;41327;45.102;20.624;2022-10-28T11:16:56;23.42;;;16.20;;
55461;SDS011;41327;45.102;20.624;2022-10-28T11:19:29;24.88;;;15.68;;
55461;SDS011;41327;45.102;20.624;2022-10-28T11:22:10;23.67;;;16.38;;
55461;SDS011;41327;45.102;20.624;2022-10-28T11:30:50;22.73;;;16.15;;
55461;SDS011;41327;45.102;20.624;2022-10-28T11:33:20;26.33;;;15.43;;
55461;SDS011;41327;45.102;20.624;2022-10-28T11:36:13;22.08;;;15.10;;
55461;SDS011;41327;45.102;20.624;2022-10-28T11:38:47;24.98;;;16.17;;
55461;SDS011;41327;45.102;20.624;2022-10-28T12:08:52;19.45;;;12.75;;
55461;SDS011;41327;45.102;20.624;2022-10-28T12:14:13;18.40;;;11.88;;
55461;SDS011;41327;45.102;20.624;2022-10-28T12:16:59;17.00;;;12.13;;
55461;SDS011;41327;45.102;20.624;2022-10-28T12:19:31;17.63;;;11.63;;
55461;SDS011;41327;45.102;20.624;2022-10-28T12:22:24;15.55;;;11.25;;
55461;SDS011;41327;45.102;20.624;2022-10-28T12:24:52;17.00;;;10.88;;
55461;SDS011;41327;45.102;20.624;2022-10-28T12:27:21;15.80;;;10.55;;
55461;SDS011;41327;45.102;20.624;2022-10-28T12:29:53;14.27;;;10.63;;
55461;SDS011;41327;45.102;20.624;2022-10-28T12:34:54;16.50;;;11.75;;
55461;SDS011;41327;45.102;20.624;2022-10-28T12:42:41;16.40;;;10.55;;
55461;SDS011;41327;45.102;20.624;2022-10-28T12:45:10;14.75;;;9.45;;
55461;SDS011;41327;45.102;20.624;2022-10-28T12:47:44;15.18;;;9.57;;
55461;SDS011;41327;45.102;20.624;2022-10-28T12:57:57;17.05;;;10.45;;
55461;SDS011;41327;45.102;20.624;2022-10-28T13:00:28;13.15;;;9.52;;
55461;SDS011;41327;45.102;20.624;2022-10-28T13:03:03;16.13;;;9.25;;
55461;SDS011;41327;45.102;20.624;2022-10-28T13:05:33;15.07;;;9.90;;
55461;SDS011;41327;45.102;20.624;2022-10-28T13:08:30;14.57;;;9.07;;
55461;SDS011;41327;45.102;20.624;2022-10-28T13:13:54;12.80;;;9.85;;
55461;SDS011;41327;45.102;20.624;2022-10-28T13:22:02;15.35;;;9.32;;
55461;SDS011;41327;45.102;20.624;2022-10-28T13:27:23;17.52;;;9.52;;
55461;SDS011;41327;45.102;20.624;2022-10-28T13:29:50;16.02;;;9.50;;
55461;SDS011;41327;45.102;20.624;2022-10-28T13:32:51;13.85;;;9.00;;
55461;SDS011;41327;45.102;20.624;2022-10-28T13:35:13;14.60;;;8.82;;
55461;SDS011;41327;45.102;20.624;2022-10-28T13:37:49;12.95;;;8.10;;
55461;SDS011;41327;45.102;20.624;2022-10-28T13:42:58;22.27;;;12.13;;
55461;SDS011;41327;45.102;20.624;2022-10-28T13:51:24;21.90;;;13.60;;
55461;SDS011;41327;45.102;20.624;2022-10-28T13:58:55;17.88;;;12.65;;
55461;SDS011;41327;45.102;20.624;2022-10-28T14:04:00;20.02;;;11.20;;
55461;SDS011;41327;45.102;20.624;2022-10-28T14:06:31;16.48;;;10.30;;
55461;SDS011;41327;45.102;20.624;2022-10-28T14:08:57;18.85;;;10.98;;
55461;SDS011;41327;45.102;20.624;2022-10-28T14:11:23;16.70;;;9.82;;
55461;SDS011;41327;45.102;20.624;2022-10-28T14:16:23;20.98;;;10.40;;
55461;SDS011;41327;45.102;20.624;2022-10-28T14:19:36;20.63;;;10.20;;
55461;SDS011;41327;45.102;20.624;2022-10-28T14:21:38;14.57;;;9.90;;
55461;SDS011;41327;45.102;20.624;2022-10-28T14:24:11;16.13;;;8.90;;
55461;SDS011;41327;45.102;20.624;2022-10-28T14:29:45;14.85;;;9.15;;
55461;SDS011;41327;45.102;20.624;2022-10-28T14:40:20;13.60;;;9.32;;
55461;SDS011;41327;45.102;20.624;2022-10-28T14:42:55;15.15;;;9.80;;
55461;SDS011;41327;45.102;20.624;2022-10-28T14:45:33;18.27;;;11.32;;
55461;SDS011;41327;45.102;20.624;2022-10-28T14:50:45;16.92;;;11.02;;
55461;SDS011;41327;45.102;20.624;2022-10-28T14:53:26;17.15;;;11.40;;
55461;SDS011;41327;45.102;20.624;2022-10-28T14:56:36;23.38;;;13.30;;
55461;SDS011;41327;45.102;20.624;2022-10-28T14:58:44;18.60;;;12.88;;
55461;SDS011;41327;45.102;20.624;2022-10-28T15:03:42;22.30;;;12.82;;
55461;SDS011;41327;45.102;20.624;2022-10-28T15:08:51;17.80;;;10.88;;
55461;SDS011;41327;45.102;20.624;2022-10-28T15:11:17;19.08;;;10.85;;
55461;SDS011;41327;45.102;20.624;2022-10-28T15:13:43;17.27;;;11.73;;
55461;SDS011;41327;45.102;20.624;2022-10-28T15:16:18;19.13;;;10.68;;
55461;SDS011;41327;45.102;20.624;2022-10-28T15:18:48;17.80;;;11.60;;
55461;SDS011;41327;45.102;20.624;2022-10-28T15:21:16;19.63;;;11.38;;
55461;SDS011;41327;45.102;20.624;2022-10-28T15:23:43;19.70;;;11.38;;
55461;SDS011;41327;45.102;20.624;2022-10-28T15:28:35;17.27;;;12.18;;
55461;SDS011;41327;45.102;20.624;2022-10-28T15:31:01;21.88;;;16.38;;
55461;SDS011;41327;45.102;20.624;2022-10-28T15:33:28;27.48;;;16.52;;
55461;SDS011;41327;45.102;20.624;2022-10-28T15:43:53;20.98;;;13.30;;
55461;SDS011;41327;45.102;20.624;2022-10-28T15:46:26;18.05;;;13.57;;
55461;SDS011;41327;45.102;20.624;2022-10-28T15:48:53;19.20;;;12.82;;
55461;SDS011;41327;45.102;20.624;2022-10-28T15:51:19;20.25;;;13.20;;
55461;SDS011;41327;45.102;20.624;2022-10-28T15:53:46;21.17;;;14.27;;
55461;SDS011;41327;45.102;20.624;2022-10-28T15:58:39;27.88;;;16.67;;
55461;SDS011;41327;45.102;20.624;2022-10-28T16:01:25;30.83;;;19.02;;
55461;SDS011;41327;45.102;20.624;2022-10-28T16:03:51;28.45;;;18.45;;
55461;SDS011;41327;45.102;20.624;2022-10-28T16:06:27;22.92;;;16.00;;
55461;SDS011;41327;45.102;20.624;2022-10-28T16:09:00;21.08;;;15.40;;
55461;SDS011;41327;45.102;20.624;2022-10-28T16:11:30;25.65;;;15.80;;
55461;SDS011;41327;45.102;20.624;2022-10-28T16:13:59;24.85;;;15.02;;
55461;SDS011;41327;45.102;20.624;2022-10-28T16:16:29;26.08;;;15.27;;
55461;SDS011;41327;45.102;20.624;2022-10-28T16:19:01;28.00;;;15.75;;
55461;SDS011;41327;45.102;20.624;2022-10-28T16:21:34;36.08;;;18.50;;
55461;SDS011;41327;45.102;20.624;2022-10-28T16:24:00;42.97;;;19.50;;
55461;SDS011;41327;45.102;20.624;2022-10-28T16:26:27;45.20;;;22.23;;
55461;SDS011;41327;45.102;20.624;2022-10-28T16:28:54;43.42;;;23.50;;
55461;SDS011;41327;45.102;20.624;2022-10-28T16:31:21;29.75;;;19.08;;
55461;SDS011;41327;45.102;20.624;2022-10-28T16:33:48;32.13;;;18.50;;
55461;SDS011;41327;45.102;20.624;2022-10-28T16:36:13;35.13;;;22.02;;
55461;SDS011;41327;45.102;20.624;2022-10-28T16:38:39;44.35;;;27.15;;
55461;SDS011;41327;45.102;20.624;2022-10-28T16:41:05;33.33;;;20.60;;
55461;SDS011;41327;45.102;20.624;2022-10-28T16:43:36;28.05;;;17.58;;
55461;SDS011;41327;45.102;20.624;2022-10-28T16:46:01;24.00;;;15.73;;
55461;SDS011;41327;45.102;20.624;2022-10-28T16:48:27;30.67;;;17.02;;
55461;SDS011;41327;45.102;20.624;2022-10-28T16:50:55;21.30;;;15.18;;
55461;SDS011;41327;45.102;20.624;2022-10-28T16:53:22;22.48;;;14.43;;
55461;SDS011;41327;45.102;20.624;2022-10-28T16:55:47;28.55;;;17.05;;
55461;SDS011;41327;45.102;20.624;2022-10-28T16:58:13;23.98;;;15.82;;
55461;SDS011;41327;45.102;20.624;2022-10-28T17:00:39;29.73;;;17.40;;
55461;SDS011;41327;45.102;20.624;2022-10-28T17:03:05;24.42;;;16.27;;
55461;SDS011;41327;45.102;20.624;2022-10-28T17:05:31;27.15;;;16.50;;
55461;SDS011;41327;45.102;20.624;2022-10-28T17:07:56;21.48;;;14.52;;
55461;SDS011;41327;45.102;20.624;2022-10-28T17:10:23;23.80;;;14.10;;
55461;SDS011;41327;45.102;20.624;2022-10-28T17:12:49;26.48;;;15.55;;
55461;SDS011;41327;45.102;20.624;2022-10-28T17:15:15;25.42;;;16.17;;
55461;SDS011;41327;45.102;20.624;2022-10-28T17:17:40;27.90;;;17.00;;
55461;SDS011;41327;45.102;20.624;2022-10-28T17:20:06;33.50;;;19.13;;
55461;SDS011;41327;45.102;20.624;2022-10-28T17:22:32;34.55;;;20.08;;
55461;SDS011;41327;45.102;20.624;2022-10-28T17:24:57;29.30;;;17.77;;
55461;SDS011;41327;45.102;20.624;2022-10-28T17:27:23;28.38;;;18.20;;
55461;SDS011;41327;45.102;20.624;2022-10-28T17:29:49;28.00;;;17.85;;
55461;SDS011;41327;45.102;20.624;2022-10-28T17:32:14;27.45;;;17.17;;